Time;durP1;ratioP1;P1;durP2;ratioP2;P2;SDS_P1;SDS_P2;PMS_P1;PMS_P2;Temp;Humidity;BMP_temperature;BMP_pressure;BME280_temperature;BME280_humidity;BME280_pressure;Samples;Min_cycle;Max_cycle;Signal;HPM_P1;HPM_P2
2022/12/07 22:15:54;;;;;;;8.73;7.23;;;2.90;99.90;;;;;;5127980;27;20552;-74
2022/12/07 22:18:20;;;;;;;10.17;7.33;;;2.70;99.90;;;;;;5110458;28;20181;-74
2022/12/07 22:20:46;;;;;;;11.27;8.10;;;2.80;99.90;;;;;;5093154;28;20615;-74
2022/12/07 22:23:11;;;;;;;10.33;8.03;;;2.70;99.90;;;;;;5111070;28;20233;-74
2022/12/07 22:26:14;;;;;;;9.60;7.77;;;2.80;99.90;;;;;;5110076;28;20176;-74
2022/12/07 22:28:41;;;;;;;9.73;8.73;;;2.80;99.90;;;;;;5110080;28;20176;-75
2022/12/07 22:31:09;;;;;;;11.33;8.73;;;2.80;99.90;;;;;;5109892;28;20196;-75
2022/12/07 22:33:36;;;;;;;11.97;8.97;;;2.90;99.90;;;;;;5110820;28;20189;-75
2022/12/07 22:36:02;;;;;;;10.00;8.73;;;2.90;99.90;;;;;;5110576;28;20178;-75
2022/12/07 22:38:28;;;;;;;11.87;8.83;;;3.00;99.90;;;;;;5110052;28;20176;-75
2022/12/07 22:40:54;;;;;;;11.17;7.87;;;3.00;99.90;;;;;;5110604;28;20172;-75
2022/12/07 22:43:21;;;;;;;9.83;7.40;;;3.00;99.90;;;;;;5109746;28;20567;-75
2022/12/07 22:45:55;;;;;;;11.63;8.00;;;3.10;99.90;;;;;;5110435;28;20188;-75
2022/12/07 22:48:26;;;;;;;11.70;8.23;;;3.20;99.90;;;;;;5110660;28;20169;-74
2022/12/07 22:50:53;;;;;;;10.00;7.73;;;3.20;99.90;;;;;;5110091;28;20200;-75
2022/12/07 22:53:22;;;;;;;9.10;7.10;;;3.20;99.90;;;;;;5110251;28;20202;-75
2022/12/07 22:55:48;;;;;;;9.17;7.27;;;3.20;99.90;;;;;;5109680;28;20211;-75
2022/12/07 22:58:14;;;;;;;8.10;7.30;;;3.20;99.90;;;;;;5109611;28;20180;-75
2022/12/07 23:00:40;;;;;;;9.87;7.47;;;3.20;99.90;;;;;;5109540;28;20218;-75
2022/12/07 23:03:06;;;;;;;10.07;7.33;;;3.20;99.90;;;;;;5110736;28;20223;-75
2022/12/07 23:05:32;;;;;;;10.10;7.87;;;3.20;99.90;;;;;;5110706;28;20221;-75
2022/12/07 23:07:58;;;;;;;12.23;7.97;;;3.30;99.90;;;;;;5110652;28;20184;-75
2022/12/07 23:10:23;;;;;;;10.07;7.90;;;3.20;99.90;;;;;;5110620;28;20187;-75
2022/12/07 23:15:37;;;;;;;11.23;7.87;;;3.30;99.90;;;;;;5111189;28;20211;-75
2022/12/07 23:18:03;;;;;;;10.63;7.70;;;3.30;99.90;;;;;;5109343;28;20181;-75
2022/12/07 23:20:29;;;;;;;10.33;8.30;;;3.30;99.90;;;;;;5108815;28;20176;-75
2022/12/07 23:22:54;;;;;;;8.80;7.50;;;3.30;99.90;;;;;;5109138;28;20591;-75
2022/12/07 23:25:44;;;;;;;8.30;7.50;;;3.20;99.90;;;;;;5107332;28;20177;-75
2022/12/07 23:28:12;;;;;;;10.03;8.00;;;3.20;99.90;;;;;;5095125;28;20254;-75
2022/12/07 23:30:38;;;;;;;10.03;7.57;;;3.20;99.90;;;;;;5096602;28;20699;-75
2022/12/07 23:33:03;;;;;;;11.80;8.40;;;3.30;99.90;;;;;;5095153;28;20275;-75
2022/12/07 23:35:29;;;;;;;8.83;7.90;;;3.20;99.90;;;;;;5095277;28;20209;-75
2022/12/07 23:37:54;;;;;;;8.57;7.73;;;3.20;99.90;;;;;;5095013;28;20176;-75
2022/12/07 23:40:20;;;;;;;10.67;8.40;;;3.30;99.90;;;;;;5094953;28;20173;-75
2022/12/07 23:42:45;;;;;;;9.40;8.50;;;3.20;99.90;;;;;;5095627;28;20288;-75
2022/12/07 23:45:11;;;;;;;10.47;8.80;;;3.20;99.90;;;;;;5094923;28;20200;-75
2022/12/07 23:47:37;;;;;;;11.33;8.60;;;3.30;99.90;;;;;;5096268;28;20169;-75
2022/12/07 23:50:03;;;;;;;10.23;8.80;;;3.30;99.90;;;;;;5094857;28;20168;-75
2022/12/07 23:52:30;;;;;;;11.30;9.20;;;3.30;99.90;;;;;;5096041;28;20242;-75
2022/12/07 23:54:55;;;;;;;10.10;8.57;;;3.20;99.90;;;;;;5094645;28;20201;-75
2022/12/07 23:57:21;;;;;;;9.77;8.53;;;3.20;99.90;;;;;;5094578;28;20165;-75
2022/12/07 23:59:46;;;;;;;12.47;9.60;;;3.20;99.90;;;;;;5095705;28;20177;-75
